Time;durP1;ratioP1;P1;durP2;ratioP2;P2;SDS_P1;SDS_P2;PMS_P1;PMS_P2;Temp;Humidity;BMP_temperature;BMP_pressure;BME280_temperature;BME280_humidity;BME280_pressure;Samples;Min_cycle;Max_cycle;Signal;HPM_P1;HPM_P2
2023/06/01 00:01:49;;;;;;;12.90;5.10;;;;;;;;;;5055001;27;96469;-79
2023/06/01 00:04:16;;;;;;;15.05;6.53;;;;;;;;;;5071770;27;92467;-78
2023/06/01 00:06:43;;;;;;;16.17;6.13;;;;;;;;;;5052968;27;93483;-77
2023/06/01 00:09:10;;;;;;;15.65;6.15;;;;;;;;;;5068108;27;93378;-77
2023/06/01 00:11:36;;;;;;;14.43;6.57;;;;;;;;;;5054092;27;92425;-76
2023/06/01 00:14:03;;;;;;;15.68;5.63;;;;;;;;;;5057241;27;93339;-78
2023/06/01 00:16:30;;;;;;;17.55;6.03;;;;;;;;;;5054307;27;92478;-77
2023/06/01 00:19:00;;;;;;;13.48;6.10;;;;;;;;;;5055064;27;93254;-78
2023/06/01 00:21:27;;;;;;;12.37;6.40;;;;;;;;;;5054120;27;94673;-78
2023/06/01 00:23:54;;;;;;;11.85;5.70;;;;;;;;;;5054367;27;92398;-79
2023/06/01 00:26:21;;;;;;;17.13;6.63;;;;;;;;;;5053074;27;94795;-79
2023/06/01 00:28:47;;;;;;;12.50;6.40;;;;;;;;;;5054445;27;93003;-79
2023/06/01 00:31:13;;;;;;;14.45;6.38;;;;;;;;;;5054325;27;92447;-79
2023/06/01 00:33:40;;;;;;;15.52;6.10;;;;;;;;;;5054606;27;93387;-78
2023/06/01 00:36:06;;;;;;;13.65;5.88;;;;;;;;;;5057476;27;93457;-78
2023/06/01 00:38:33;;;;;;;13.20;5.80;;;;;;;;;;5053806;27;93155;-79
2023/06/01 00:40:59;;;;;;;14.52;5.93;;;;;;;;;;5054293;27;93448;-78
2023/06/01 00:43:26;;;;;;;17.02;6.10;;;;;;;;;;5052518;27;91750;-80
2023/06/01 00:45:53;;;;;;;12.40;6.00;;;;;;;;;;5068550;27;92715;-77
2023/06/01 00:48:20;;;;;;;11.73;5.65;;;;;;;;;;5053209;27;93542;-77
2023/06/01 00:50:47;;;;;;;12.35;5.97;;;;;;;;;;5051674;27;95183;-80
2023/06/01 00:53:18;;;;;;;13.30;5.78;;;;;;;;;;5071319;27;95539;-77
2023/06/01 00:55:45;;;;;;;9.88;6.07;;;;;;;;;;5067097;27;93599;-78
2023/06/01 00:58:12;;;;;;;12.85;5.75;;;;;;;;;;5068593;27;92461;-78
2023/06/01 01:00:38;;;;;;;12.48;5.55;;;;;;;;;;5035886;27;93631;-78
2023/06/01 01:03:07;;;;;;;9.13;5.53;;;;;;;;;;5053777;27;92822;-76
2023/06/01 01:05:34;;;;;;;11.30;5.85;;;;;;;;;;5052289;27;93244;-77
2023/06/01 01:08:13;;;;;;;14.43;5.65;;;;;;;;;;5072523;27;92778;-78
2023/06/01 01:10:46;;;;;;;11.60;5.72;;;;;;;;;;5072273;27;93019;-80
2023/06/01 01:13:15;;;;;;;18.02;5.63;;;;;;;;;;5036647;27;92753;-78
2023/06/01 01:16:00;;;;;;;9.35;4.70;;;;;;;;;;5053035;27;97039;-80
2023/06/01 01:18:46;;;;;;;15.18;5.60;;;;;;;;;;5048807;27;92671;-83
2023/06/01 01:21:27;;;;;;;11.35;5.45;;;;;;;;;;5025938;27;93325;-82
2023/06/01 01:24:18;;;;;;;11.45;5.22;;;;;;;;;;5058133;27;92376;-82
2023/06/01 01:26:58;;;;;;;13.93;5.22;;;;;;;;;;4954820;28;93055;-80
2023/06/01 01:29:26;;;;;;;11.93;5.18;;;;;;;;;;4956082;28;95011;-83
2023/06/01 01:31:53;;;;;;;14.85;6.25;;;;;;;;;;4939338;28;92709;-79
2023/06/01 01:34:20;;;;;;;15.38;5.80;;;;;;;;;;4955629;28;92522;-79
2023/06/01 01:36:46;;;;;;;12.57;4.90;;;;;;;;;;4954888;28;93414;-78
2023/06/01 01:39:13;;;;;;;17.80;6.10;;;;;;;;;;4938038;28;92560;-80
2023/06/01 01:41:40;;;;;;;16.00;5.50;;;;;;;;;;4937466;28;95178;-77
2023/06/01 01:44:06;;;;;;;12.57;6.05;;;;;;;;;;4969277;28;93508;-77
2023/06/01 01:46:39;;;;;;;9.48;5.07;;;;;;;;;;4954118;28;93248;-77
2023/06/01 01:49:18;;;;;;;17.50;6.00;;;;;;;;;;4954266;28;93685;-80
2023/06/01 01:51:44;;;;;;;12.20;5.88;;;;;;;;;;4954337;28;92536;-77
2023/06/01 01:54:12;;;;;;;12.15;6.18;;;;;;;;;;4953518;28;93305;-77
2023/06/01 01:56:38;;;;;;;20.33;6.30;;;;;;;;;;4953874;28;93548;-76
2023/06/01 01:59:05;;;;;;;20.95;6.60;;;;;;;;;;4954134;28;92123;-76
2023/06/01 02:01:31;;;;;;;9.35;5.45;;;;;;;;;;4962467;28;92572;-76
2023/06/01 02:04:02;;;;;;;11.23;6.10;;;;;;;;;;5021907;27;93673;-77
2023/06/01 02:06:28;;;;;;;16.98;6.72;;;;;;;;;;5054659;27;94871;-78
2023/06/01 02:08:55;;;;;;;14.70;6.45;;;;;;;;;;5055384;27;93509;-77
2023/06/01 02:11:21;;;;;;;16.25;5.95;;;;;;;;;;5067753;27;93761;-76
2023/06/01 02:13:48;;;;;;;12.02;6.43;;;;;;;;;;5056692;27;93401;-79
2023/06/01 02:16:15;;;;;;;9.45;5.00;;;;;;;;;;5037302;27;93748;-78
2023/06/01 02:18:45;;;;;;;12.38;5.60;;;;;;;;;;5061161;27;92523;-78
2023/06/01 02:21:13;;;;;;;10.48;5.40;;;;;;;;;;5073787;27;93315;-80
2023/06/01 02:23:40;;;;;;;14.07;6.40;;;;;;;;;;5055901;27;95464;-78
2023/06/01 02:26:07;;;;;;;16.98;6.03;;;;;;;;;;5056451;27;92993;-78
2023/06/01 02:28:33;;;;;;;12.88;6.30;;;;;;;;;;5058639;27;94031;-78
2023/06/01 02:31:00;;;;;;;19.75;7.18;;;;;;;;;;5073235;27;94900;-81
2023/06/01 02:33:27;;;;;;;10.90;6.43;;;;;;;;;;5074448;27;95673;-78
2023/06/01 02:35:53;;;;;;;14.30;6.80;;;;;;;;;;5056689;27;96401;-78
2023/06/01 02:38:20;;;;;;;22.80;7.32;;;;;;;;;;5055692;27;92490;-78
2023/06/01 02:40:46;;;;;;;13.85;7.13;;;;;;;;;;5051966;27;93670;-78
2023/06/01 02:43:12;;;;;;;19.67;6.25;;;;;;;;;;5061899;27;93635;-80
2023/06/01 02:45:39;;;;;;;13.38;7.07;;;;;;;;;;5063022;27;92486;-80
2023/06/01 02:48:06;;;;;;;15.27;7.07;;;;;;;;;;5058811;27;93270;-80
2023/06/01 02:50:32;;;;;;;15.38;6.65;;;;;;;;;;5062198;27;92492;-79
2023/06/01 02:52:58;;;;;;;16.27;7.10;;;;;;;;;;5037082;27;93302;-79
2023/06/01 02:55:25;;;;;;;13.40;6.60;;;;;;;;;;5057807;27;95644;-78
2023/06/01 02:57:51;;;;;;;15.32;7.40;;;;;;;;;;5053783;27;92538;-79
2023/06/01 03:00:18;;;;;;;15.02;7.13;;;;;;;;;;5066710;27;93324;-78
2023/06/01 03:02:45;;;;;;;12.90;6.55;;;;;;;;;;5055146;27;93627;-79
2023/06/01 03:05:14;;;;;;;12.07;6.97;;;;;;;;;;5057484;27;93034;-79
2023/06/01 03:07:41;;;;;;;13.07;7.22;;;;;;;;;;5070094;27;93903;-79
2023/06/01 03:10:08;;;;;;;18.08;7.70;;;;;;;;;;5056578;27;94358;-79
2023/06/01 03:12:34;;;;;;;12.20;7.13;;;;;;;;;;5055714;27;94097;-79
2023/06/01 03:15:01;;;;;;;16.20;7.45;;;;;;;;;;5052421;27;92792;-80
2023/06/01 03:17:27;;;;;;;16.63;7.20;;;;;;;;;;5056211;27;93389;-79
2023/06/01 03:19:54;;;;;;;14.45;6.82;;;;;;;;;;5051835;27;95677;-79
2023/06/01 03:22:21;;;;;;;13.88;7.03;;;;;;;;;;5056957;27;93583;-80
2023/06/01 03:24:49;;;;;;;15.77;6.88;;;;;;;;;;5054476;27;92672;-81
2023/06/01 03:27:19;;;;;;;17.15;7.63;;;;;;;;;;5055239;27;92945;-80
2023/06/01 03:29:46;;;;;;;14.07;7.30;;;;;;;;;;5055818;27;94336;-79
2023/06/01 03:32:13;;;;;;;15.27;7.75;;;;;;;;;;5060430;27;94401;-85
2023/06/01 03:34:40;;;;;;;18.25;7.22;;;;;;;;;;5054129;27;96898;-81
2023/06/01 03:37:07;;;;;;;15.25;7.05;;;;;;;;;;5041251;27;91769;-79
2023/06/01 03:39:35;;;;;;;17.65;7.30;;;;;;;;;;5072318;27;92763;-79
2023/06/01 03:42:02;;;;;;;23.92;7.70;;;;;;;;;;5040320;27;93549;-79
2023/06/01 03:44:28;;;;;;;22.10;7.28;;;;;;;;;;5071763;27;95215;-79
2023/06/01 03:46:55;;;;;;;17.13;7.05;;;;;;;;;;5064373;27;95480;-78
2023/06/01 03:49:21;;;;;;;13.70;7.28;;;;;;;;;;5069613;27;93418;-78
2023/06/01 03:51:47;;;;;;;18.25;6.90;;;;;;;;;;5067099;27;92614;-78
2023/06/01 03:54:14;;;;;;;12.70;6.53;;;;;;;;;;5059691;27;93170;-78
2023/06/01 03:56:41;;;;;;;16.88;7.38;;;;;;;;;;5073301;27;92544;-79
2023/06/01 03:59:09;;;;;;;17.88;7.43;;;;;;;;;;5074425;27;93097;-86
2023/06/01 04:01:39;;;;;;;14.68;7.10;;;;;;;;;;5065784;27;95702;-93
2023/06/01 04:04:09;;;;;;;17.17;6.95;;;;;;;;;;5055039;27;92658;-78
2023/06/01 04:06:36;;;;;;;14.02;6.88;;;;;;;;;;5047800;27;94453;-88
2023/06/01 04:09:06;;;;;;;15.90;7.57;;;;;;;;;;5037340;27;95950;-88
2023/06/01 04:11:33;;;;;;;14.63;6.75;;;;;;;;;;5069154;27;92477;-87
2023/06/01 04:13:59;;;;;;;26.15;7.47;;;;;;;;;;5058464;27;94270;-88
2023/06/01 04:16:26;;;;;;;17.20;6.65;;;;;;;;;;5055726;27;92482;-88
2023/06/01 04:18:53;;;;;;;12.45;6.43;;;;;;;;;;5055086;27;94370;-87
2023/06/01 04:21:20;;;;;;;17.73;7.00;;;;;;;;;;5056008;27;94755;-82
2023/06/01 04:23:47;;;;;;;25.58;7.68;;;;;;;;;;5053840;27;92429;-78
2023/06/01 04:26:13;;;;;;;21.05;7.68;;;;;;;;;;5073791;27;93527;-78
2023/06/01 04:28:43;;;;;;;17.80;6.97;;;;;;;;;;5069239;27;96494;-78
2023/06/01 04:31:16;;;;;;;25.17;7.55;;;;;;;;;;5052741;27;92563;-78
2023/06/01 04:33:44;;;;;;;17.90;7.63;;;;;;;;;;5051608;27;94858;-79
2023/06/01 04:36:13;;;;;;;16.02;7.00;;;;;;;;;;5055781;27;93477;-79
2023/06/01 04:38:41;;;;;;;13.73;6.88;;;;;;;;;;5053102;27;93277;-79
2023/06/01 04:41:10;;;;;;;21.50;7.88;;;;;;;;;;5052041;27;92492;-77
2023/06/01 04:43:39;;;;;;;15.48;6.55;;;;;;;;;;5053006;27;92461;-76
2023/06/01 04:46:05;;;;;;;18.55;6.85;;;;;;;;;;5051345;27;94254;-77
2023/06/01 04:48:32;;;;;;;22.98;6.90;;;;;;;;;;5054650;27;93456;-77
2023/06/01 04:50:59;;;;;;;14.48;6.30;;;;;;;;;;5073581;27;91669;-79
2023/06/01 04:53:26;;;;;;;19.15;6.95;;;;;;;;;;5075917;27;92544;-80
2023/06/01 04:55:56;;;;;;;21.15;7.05;;;;;;;;;;5055832;27;93407;-79
2023/06/01 04:58:22;;;;;;;17.30;6.78;;;;;;;;;;5057861;27;95248;-78
2023/06/01 05:00:49;;;;;;;16.98;5.90;;;;;;;;;;5056255;27;93518;-80
2023/06/01 05:03:15;;;;;;;12.57;6.32;;;;;;;;;;5055555;27;92542;-78
2023/06/01 05:05:42;;;;;;;15.27;6.97;;;;;;;;;;5075711;27;93134;-80
2023/06/01 05:08:08;;;;;;;16.60;7.07;;;;;;;;;;5076282;27;93465;-83
2023/06/01 05:10:35;;;;;;;16.80;6.72;;;;;;;;;;5060793;27;92707;-82
2023/06/01 05:13:01;;;;;;;16.55;6.07;;;;;;;;;;5057540;27;95173;-82
2023/06/01 05:15:28;;;;;;;20.55;6.60;;;;;;;;;;5058484;27;95927;-80
2023/06/01 05:17:54;;;;;;;16.80;6.47;;;;;;;;;;5039452;27;92680;-80
2023/06/01 05:20:21;;;;;;;12.63;6.65;;;;;;;;;;5060837;27;94252;-80
2023/06/01 05:22:47;;;;;;;16.05;6.35;;;;;;;;;;5054080;27;94933;-78
2023/06/01 05:25:14;;;;;;;19.15;6.68;;;;;;;;;;5057009;27;95726;-78
2023/06/01 05:27:40;;;;;;;17.00;6.80;;;;;;;;;;5056733;27;93410;-82
2023/06/01 05:30:07;;;;;;;16.17;6.70;;;;;;;;;;5057094;27;92451;-82
2023/06/01 05:32:33;;;;;;;19.05;6.60;;;;;;;;;;5057466;27;93376;-82
2023/06/01 05:35:00;;;;;;;18.55;6.15;;;;;;;;;;5057921;27;94529;-82
2023/06/01 05:37:26;;;;;;;24.23;7.20;;;;;;;;;;5055576;27;92536;-81
2023/06/01 05:39:53;;;;;;;18.95;7.38;;;;;;;;;;5057636;27;91748;-84
2023/06/01 05:42:19;;;;;;;22.20;7.03;;;;;;;;;;5060760;27;92936;-83
2023/06/01 05:44:46;;;;;;;16.63;7.50;;;;;;;;;;5057801;27;93306;-83
2023/06/01 05:47:12;;;;;;;16.38;6.75;;;;;;;;;;5056631;27;96941;-84
2023/06/01 05:49:39;;;;;;;16.52;7.07;;;;;;;;;;5057631;27;92448;-81
2023/06/01 05:52:06;;;;;;;17.50;6.88;;;;;;;;;;5062711;27;94292;-80
2023/06/01 05:54:32;;;;;;;19.23;6.45;;;;;;;;;;5054622;27;94269;-77
2023/06/01 05:56:59;;;;;;;18.98;6.55;;;;;;;;;;5058093;27;93275;-85
2023/06/01 05:59:25;;;;;;;15.82;7.13;;;;;;;;;;5045015;27;94814;-85
2023/06/01 06:01:52;;;;;;;22.30;6.90;;;;;;;;;;5054323;27;94986;-83
2023/06/01 06:04:18;;;;;;;16.95;7.32;;;;;;;;;;5061028;27;92253;-81
2023/06/01 06:06:46;;;;;;;19.77;7.38;;;;;;;;;;5055900;27;93404;-86
2023/06/01 06:09:13;;;;;;;15.55;7.05;;;;;;;;;;5055843;27;92894;-84
2023/06/01 06:11:40;;;;;;;15.10;7.05;;;;;;;;;;5022670;27;95367;-80
2023/06/01 06:14:06;;;;;;;23.83;7.35;;;;;;;;;;5039302;27;94671;-82
2023/06/01 06:16:33;;;;;;;16.83;7.50;;;;;;;;;;5042970;27;93421;-82
2023/06/01 06:18:59;;;;;;;27.23;8.63;;;;;;;;;;5056489;27;94161;-82
2023/06/01 06:21:26;;;;;;;17.73;7.28;;;;;;;;;;5055378;27;94926;-82
2023/06/01 06:23:53;;;;;;;21.98;7.80;;;;;;;;;;5058404;27;93205;-82
2023/06/01 06:26:19;;;;;;;23.88;7.78;;;;;;;;;;5057591;27;94264;-81
2023/06/01 06:28:45;;;;;;;17.83;8.27;;;;;;;;;;5057834;27;92189;-81
2023/06/01 06:31:12;;;;;;;20.27;7.03;;;;;;;;;;5056581;27;92883;-82
2023/06/01 06:33:38;;;;;;;16.55;6.88;;;;;;;;;;5059762;27;93468;-81
2023/06/01 06:36:05;;;;;;;15.73;7.05;;;;;;;;;;5059048;27;96302;-81
2023/06/01 06:38:32;;;;;;;16.63;6.65;;;;;;;;;;5055203;27;97548;-81
2023/06/01 06:40:58;;;;;;;20.75;7.07;;;;;;;;;;5047535;27;93918;-81
2023/06/01 06:43:25;;;;;;;17.65;7.10;;;;;;;;;;5038706;27;94519;-81
2023/06/01 06:45:52;;;;;;;17.75;7.65;;;;;;;;;;5058009;27;93334;-81
2023/06/01 06:48:18;;;;;;;18.75;7.18;;;;;;;;;;5059124;27;93063;-81
2023/06/01 06:50:45;;;;;;;24.15;7.65;;;;;;;;;;5055807;27;94611;-81
2023/06/01 06:53:11;;;;;;;21.17;6.68;;;;;;;;;;5037024;27;92745;-81
2023/06/01 06:55:38;;;;;;;20.60;6.88;;;;;;;;;;5053454;27;93012;-81
2023/06/01 06:58:04;;;;;;;19.95;7.60;;;;;;;;;;5056704;27;94152;-81
2023/06/01 07:00:34;;;;;;;20.67;6.88;;;;;;;;;;5054227;27;96308;-81
2023/06/01 07:03:00;;;;;;;15.40;7.40;;;;;;;;;;5054946;27;93880;-82
2023/06/01 07:05:27;;;;;;;19.20;7.25;;;;;;;;;;5056754;27;93215;-81
2023/06/01 07:07:53;;;;;;;20.25;7.80;;;;;;;;;;5045177;27;94380;-81
2023/06/01 07:10:23;;;;;;;14.23;7.32;;;;;;;;;;5034626;27;93216;-81
2023/06/01 07:12:49;;;;;;;16.95;7.60;;;;;;;;;;5037084;27;93419;-78
2023/06/01 07:15:16;;;;;;;17.33;7.18;;;;;;;;;;5047635;27;92443;-78
2023/06/01 07:17:42;;;;;;;12.15;6.68;;;;;;;;;;5050015;27;91952;-78
2023/06/01 07:20:11;;;;;;;14.13;7.30;;;;;;;;;;5054643;27;93330;-78
2023/06/01 07:22:38;;;;;;;17.63;7.38;;;;;;;;;;5044704;27;92483;-79
2023/06/01 07:25:05;;;;;;;16.23;6.88;;;;;;;;;;5051893;27;96535;-77
2023/06/01 07:27:34;;;;;;;17.27;7.20;;;;;;;;;;5063576;27;92778;-78
2023/06/01 07:30:05;;;;;;;14.95;7.35;;;;;;;;;;5033062;27;92604;-78
2023/06/01 07:32:31;;;;;;;16.70;6.70;;;;;;;;;;5050191;27;93842;-78
2023/06/01 07:34:59;;;;;;;28.02;7.60;;;;;;;;;;5048210;27;94217;-78
2023/06/01 07:37:26;;;;;;;15.43;6.93;;;;;;;;;;5031488;27;94107;-78
2023/06/01 07:39:54;;;;;;;16.45;7.25;;;;;;;;;;5052118;27;93564;-78
2023/06/01 07:42:20;;;;;;;16.40;6.72;;;;;;;;;;5031034;27;92218;-78
2023/06/01 07:44:47;;;;;;;13.82;6.50;;;;;;;;;;5049141;27;94264;-77
2023/06/01 07:47:13;;;;;;;17.60;7.35;;;;;;;;;;5052023;27;93921;-79
2023/06/01 07:49:40;;;;;;;18.27;7.30;;;;;;;;;;5051472;27;95777;-79
2023/06/01 07:52:07;;;;;;;18.05;6.72;;;;;;;;;;5053811;27;96097;-78
2023/06/01 07:54:34;;;;;;;23.45;7.32;;;;;;;;;;5050380;27;94499;-79
2023/06/01 07:57:02;;;;;;;17.33;6.63;;;;;;;;;;5035582;27;94287;-78
2023/06/01 07:59:29;;;;;;;18.08;6.88;;;;;;;;;;5036113;27;94105;-79
2023/06/01 08:01:56;;;;;;;15.50;6.45;;;;;;;;;;5046117;27;92620;-79
2023/06/01 08:04:23;;;;;;;13.90;6.57;;;;;;;;;;5050742;27;93253;-78
2023/06/01 08:06:52;;;;;;;19.50;5.85;;;;;;;;;;5053157;27;93797;-79
2023/06/01 08:09:20;;;;;;;18.13;6.68;;;;;;;;;;5032643;27;93071;-79
2023/06/01 08:11:46;;;;;;;8.90;5.47;;;;;;;;;;5054992;27;94409;-79
2023/06/01 08:14:13;;;;;;;13.55;5.88;;;;;;;;;;5047841;27;95975;-81
2023/06/01 08:16:39;;;;;;;13.15;6.57;;;;;;;;;;5052160;27;96871;-81
2023/06/01 08:19:05;;;;;;;15.82;6.65;;;;;;;;;;5049361;27;93341;-81
2023/06/01 08:21:32;;;;;;;15.18;6.30;;;;;;;;;;5049613;27;92743;-82
2023/06/01 08:23:58;;;;;;;19.98;6.32;;;;;;;;;;5049156;27;94642;-81
2023/06/01 08:26:25;;;;;;;14.90;6.18;;;;;;;;;;5051809;27;94826;-81
2023/06/01 08:28:52;;;;;;;9.95;5.38;;;;;;;;;;5053954;27;94116;-81
2023/06/01 08:31:20;;;;;;;16.38;5.53;;;;;;;;;;5048421;27;93369;-81
2023/06/01 08:33:47;;;;;;;13.98;5.95;;;;;;;;;;5054563;27;94233;-81
2023/06/01 08:36:13;;;;;;;17.17;5.78;;;;;;;;;;5051355;27;94300;-81
2023/06/01 08:38:40;;;;;;;13.85;5.30;;;;;;;;;;5047528;27;98073;-82
2023/06/01 08:41:28;;;;;;;13.13;5.70;;;;;;;;;;5053813;27;93731;-81
2023/06/01 08:43:58;;;;;;;14.25;4.78;;;;;;;;;;5046292;27;94794;-81
2023/06/01 08:46:25;;;;;;;14.35;4.82;;;;;;;;;;5034616;27;94732;-82
2023/06/01 08:48:53;;;;;;;10.88;4.70;;;;;;;;;;5033680;27;92611;-82
2023/06/01 08:51:21;;;;;;;13.65;5.40;;;;;;;;;;5050469;27;94435;-82
2023/06/01 08:53:49;;;;;;;13.82;5.50;;;;;;;;;;5033659;27;94576;-82
2023/06/01 08:56:16;;;;;;;8.70;4.53;;;;;;;;;;5057174;27;91923;-82
2023/06/01 08:58:43;;;;;;;14.15;5.65;;;;;;;;;;5052150;27;93159;-82
2023/06/01 09:01:11;;;;;;;15.43;5.70;;;;;;;;;;5043252;27;92575;-82
2023/06/01 09:03:38;;;;;;;12.25;5.50;;;;;;;;;;5034497;27;94905;-82
2023/06/01 09:06:04;;;;;;;9.30;5.22;;;;;;;;;;5046263;27;94091;-82
2023/06/01 09:08:33;;;;;;;14.15;4.80;;;;;;;;;;5050929;27;92622;-82
2023/06/01 09:11:00;;;;;;;11.25;5.43;;;;;;;;;;5051622;27;95778;-82
2023/06/01 09:13:30;;;;;;;15.23;5.80;;;;;;;;;;5048451;27;94683;-77
2023/06/01 09:15:58;;;;;;;17.27;5.72;;;;;;;;;;5039015;27;93585;-82
2023/06/01 09:18:24;;;;;;;10.57;5.57;;;;;;;;;;5044303;27;94550;-82
2023/06/01 09:20:53;;;;;;;11.27;5.90;;;;;;;;;;5041860;27;92700;-81
2023/06/01 09:23:24;;;;;;;11.98;5.57;;;;;;;;;;5048377;27;93493;-81
2023/06/01 09:26:11;;;;;;;14.15;5.85;;;;;;;;;;5053878;27;94572;-81
2023/06/01 09:28:58;;;;;;;9.07;5.30;;;;;;;;;;5072528;27;95310;-81
2023/06/01 09:31:44;;;;;;;16.27;5.60;;;;;;;;;;5058945;27;99422;-82
2023/06/01 09:34:15;;;;;;;12.07;5.40;;;;;;;;;;5050564;27;94510;-80
2023/06/01 09:36:42;;;;;;;14.70;5.78;;;;;;;;;;5051281;27;92690;-82
2023/06/01 09:39:10;;;;;;;11.75;5.30;;;;;;;;;;5052508;27;94293;-81
2023/06/01 09:41:55;;;;;;;11.73;5.53;;;;;;;;;;5055534;27;94740;-81
2023/06/01 09:44:29;;;;;;;10.63;5.10;;;;;;;;;;5055142;27;93923;-81
2023/06/01 09:47:03;;;;;;;14.10;5.53;;;;;;;;;;5054182;27;93600;-81
2023/06/01 09:49:30;;;;;;;16.60;5.72;;;;;;;;;;5055292;27;92693;-82
2023/06/01 09:52:05;;;;;;;11.93;5.20;;;;;;;;;;5032270;27;94716;-81
2023/06/01 09:54:33;;;;;;;10.40;5.03;;;;;;;;;;5051186;27;96897;-81
2023/06/01 09:57:00;;;;;;;14.32;5.47;;;;;;;;;;5054080;27;95253;-81
2023/06/01 09:59:44;;;;;;;19.15;5.53;;;;;;;;;;5052644;27;94272;-83
2023/06/01 10:02:12;;;;;;;12.73;4.80;;;;;;;;;;5050057;27;94498;-80
2023/06/01 10:04:39;;;;;;;14.55;4.80;;;;;;;;;;5039701;27;92733;-78
2023/06/01 10:07:06;;;;;;;9.68;5.15;;;;;;;;;;5054680;27;95640;-78
2023/06/01 10:09:33;;;;;;;11.45;5.53;;;;;;;;;;5051572;27;94456;-80
2023/06/01 10:11:59;;;;;;;12.95;5.78;;;;;;;;;;5051497;27;93563;-80
2023/06/01 10:14:26;;;;;;;15.88;4.90;;;;;;;;;;5050583;27;94136;-80
2023/06/01 10:16:53;;;;;;;37.90;6.43;;;;;;;;;;5030016;27;94164;-79
2023/06/01 10:19:21;;;;;;;13.20;5.35;;;;;;;;;;5047954;27;96638;-80
2023/06/01 10:21:47;;;;;;;13.98;5.88;;;;;;;;;;5046504;27;93944;-78
2023/06/01 10:24:15;;;;;;;23.45;5.75;;;;;;;;;;5029172;27;94022;-77
2023/06/01 10:29:39;;;;;;;15.98;5.35;;;;;;;;;;5028530;27;86475;-76
2023/06/01 10:32:25;;;;;;;12.68;5.53;;;;;;;;;;5015020;27;88471;-79
2023/06/01 10:34:52;;;;;;;12.35;5.28;;;;;;;;;;5007766;28;87521;-76
2023/06/01 10:37:18;;;;;;;13.52;5.63;;;;;;;;;;5013006;28;88709;-76
2023/06/01 10:39:46;;;;;;;11.73;5.57;;;;;;;;;;5014483;28;88582;-80
2023/06/01 10:42:12;;;;;;;104.15;11.75;;;;;;;;;;5023125;27;87734;-80
2023/06/01 10:44:39;;;;;;;11.77;5.38;;;;;;;;;;5013504;28;89172;-83
2023/06/01 10:47:12;;;;;;;13.52;5.82;;;;;;;;;;5014585;28;94521;-80
2023/06/01 10:49:58;;;;;;;13.15;6.28;;;;;;;;;;5019031;28;88407;-81
2023/06/01 10:52:38;;;;;;;18.23;5.25;;;;;;;;;;5012675;28;90958;-83
2023/06/01 10:55:11;;;;;;;11.30;5.27;;;;;;;;;;5016537;28;88699;-83
2023/06/01 10:57:37;;;;;;;20.25;6.30;;;;;;;;;;5027703;27;88395;-83
2023/06/01 11:00:24;;;;;;;11.10;4.72;;;;;;;;;;5012800;28;89166;-83
2023/06/01 11:02:54;;;;;;;10.13;5.55;;;;;;;;;;5016188;28;88200;-84
2023/06/01 11:05:21;;;;;;;;;;;;;;;;;;5014251;28;88614;-84
2023/06/01 11:07:47;;;;;;;10.07;4.43;;;;;;;;;;5018070;28;118533;-84
2023/06/01 11:10:34;;;;;;;18.70;5.00;;;;;;;;;;5019198;28;88427;-85
2023/06/01 11:13:10;;;;;;;14.15;4.07;;;;;;;;;;5022177;28;88568;-85
2023/06/01 11:15:38;;;;;;;8.57;4.38;;;;;;;;;;5019472;28;88439;-86
2023/06/01 11:18:39;;;;;;;10.95;4.72;;;;;;;;;;5018401;28;89201;-85
2023/06/01 11:21:07;;;;;;;10.57;3.50;;;;;;;;;;4987751;28;89093;-85
2023/06/01 11:23:34;;;;;;;13.27;3.88;;;;;;;;;;4991302;28;88523;-86
2023/06/01 11:26:04;;;;;;;11.43;3.28;;;;;;;;;;4985327;28;88509;-82
2023/06/01 11:28:31;;;;;;;8.10;3.33;;;;;;;;;;4974598;28;89336;-82
2023/06/01 11:31:00;;;;;;;9.05;3.40;;;;;;;;;;4985122;28;88519;-83
2023/06/01 11:33:28;;;;;;;8.90;3.03;;;;;;;;;;4989509;28;88780;-82
2023/06/01 11:35:59;;;;;;;13.47;3.70;;;;;;;;;;4987400;28;88310;-79
2023/06/01 11:38:33;;;;;;;10.98;3.53;;;;;;;;;;4982384;28;88161;-83
2023/06/01 11:41:02;;;;;;;16.85;4.43;;;;;;;;;;4976927;28;88827;-82
2023/06/01 11:43:30;;;;;;;6.65;2.95;;;;;;;;;;4974148;28;87379;-85
2023/06/01 11:45:59;;;;;;;10.35;3.38;;;;;;;;;;4956536;28;88961;-87
2023/06/01 11:48:43;;;;;;;9.95;3.47;;;;;;;;;;4974881;28;89398;-87
2023/06/01 11:51:09;;;;;;;14.73;3.50;;;;;;;;;;4973449;28;88541;-87
2023/06/01 11:53:36;;;;;;;11.13;3.72;;;;;;;;;;4974325;28;89016;-87
2023/06/01 11:56:06;;;;;;;8.20;3.47;;;;;;;;;;4962635;28;89331;-85
2023/06/01 11:58:32;;;;;;;8.00;3.35;;;;;;;;;;5009878;28;88453;-88
2023/06/01 12:00:59;;;;;;;9.05;3.50;;;;;;;;;;5005010;28;89100;-80
2023/06/01 12:03:26;;;;;;;24.95;3.92;;;;;;;;;;5002444;28;89928;-77
2023/06/01 12:05:58;;;;;;;7.15;3.50;;;;;;;;;;5002839;28;88667;-82
2023/06/01 12:08:24;;;;;;;15.85;3.67;;;;;;;;;;5003063;28;88177;-82
2023/06/01 12:10:52;;;;;;;9.65;3.00;;;;;;;;;;4998881;28;88517;-82
2023/06/01 12:13:19;;;;;;;10.90;4.03;;;;;;;;;;5002505;28;88866;-80
2023/06/01 12:15:46;;;;;;;9.00;3.25;;;;;;;;;;5000600;28;88626;-84
2023/06/01 12:18:12;;;;;;;5.88;3.05;;;;;;;;;;5004185;28;88869;-88
2023/06/01 12:20:41;;;;;;;5.97;3.10;;;;;;;;;;5006099;28;90080;-80
2023/06/01 12:23:12;;;;;;;9.35;3.40;;;;;;;;;;5003919;28;89023;-82
2023/06/01 12:25:51;;;;;;;7.43;3.30;;;;;;;;;;5002823;28;87365;-81
2023/06/01 12:28:18;;;;;;;12.55;3.60;;;;;;;;;;5010863;28;87821;-81
2023/06/01 12:30:47;;;;;;;5.50;3.20;;;;;;;;;;5003191;28;88180;-80
2023/06/01 12:33:36;;;;;;;8.80;3.53;;;;;;;;;;4997371;28;88738;-82
2023/06/01 12:36:03;;;;;;;6.85;3.00;;;;;;;;;;5000115;28;87437;-83
2023/06/01 12:38:37;;;;;;;7.38;3.20;;;;;;;;;;4999851;28;87484;-81
2023/06/01 12:41:11;;;;;;;7.22;3.05;;;;;;;;;;5007055;28;87541;-81
2023/06/01 12:43:38;;;;;;;9.23;3.00;;;;;;;;;;4998840;28;87603;-81
2023/06/01 12:46:05;;;;;;;11.80;3.20;;;;;;;;;;5003850;28;86964;-81
2023/06/01 12:48:32;;;;;;;15.30;2.95;;;;;;;;;;5002743;28;88572;-81
2023/06/01 12:50:59;;;;;;;12.23;3.50;;;;;;;;;;4995958;28;89711;-80
2023/06/01 12:53:26;;;;;;;7.90;3.17;;;;;;;;;;4996951;28;88896;-81
2023/06/01 12:55:53;;;;;;;23.85;3.35;;;;;;;;;;4998862;28;88298;-81
2023/06/01 12:58:19;;;;;;;11.88;3.25;;;;;;;;;;5000313;28;87554;-81
2023/06/01 13:00:46;;;;;;;9.20;3.33;;;;;;;;;;5005551;28;88849;-81
2023/06/01 13:03:15;;;;;;;11.40;3.30;;;;;;;;;;5003005;28;87379;-80
2023/06/01 13:05:45;;;;;;;7.85;3.33;;;;;;;;;;4997429;28;87559;-80
2023/06/01 13:08:12;;;;;;;5.80;2.80;;;;;;;;;;4999120;28;87846;-80
2023/06/01 13:10:39;;;;;;;7.15;3.40;;;;;;;;;;4999596;28;87103;-81
2023/06/01 13:13:07;;;;;;;11.38;2.97;;;;;;;;;;5001856;28;87797;-80
2023/06/01 13:15:33;;;;;;;10.32;3.63;;;;;;;;;;5001362;28;87708;-80
2023/06/01 13:18:00;;;;;;;8.95;3.25;;;;;;;;;;5000154;28;88330;-80
2023/06/01 13:20:26;;;;;;;6.20;2.55;;;;;;;;;;4999492;28;88280;-80
2023/06/01 13:22:53;;;;;;;6.53;2.70;;;;;;;;;;5000524;28;87618;-80
2023/06/01 13:25:19;;;;;;;6.75;2.75;;;;;;;;;;5003835;28;87420;-80
2023/06/01 13:27:46;;;;;;;3.90;2.50;;;;;;;;;;4998868;28;87059;-79
2023/06/01 13:30:13;;;;;;;3.13;2.60;;;;;;;;;;5002804;28;87626;-79
2023/06/01 13:32:39;;;;;;;9.18;3.05;;;;;;;;;;5004511;28;88350;-80
2023/06/01 13:35:08;;;;;;;28.38;3.58;;;;;;;;;;4998419;28;87741;-80
2023/06/01 13:37:36;;;;;;;7.68;2.30;;;;;;;;;;4998267;28;87859;-80
2023/06/01 13:40:02;;;;;;;10.02;2.38;;;;;;;;;;5009379;28;87855;-79
2023/06/01 13:42:29;;;;;;;10.35;2.42;;;;;;;;;;4999988;28;86970;-79
2023/06/01 13:44:56;;;;;;;5.38;2.15;;;;;;;;;;4999113;28;88306;-78
2023/06/01 13:47:22;;;;;;;7.85;2.35;;;;;;;;;;5002330;28;87649;-79
2023/06/01 13:49:48;;;;;;;5.43;2.65;;;;;;;;;;4999488;28;87923;-79
2023/06/01 13:52:15;;;;;;;5.03;2.38;;;;;;;;;;5003121;28;88210;-79
2023/06/01 13:54:41;;;;;;;4.88;2.45;;;;;;;;;;5000599;28;88203;-79
2023/06/01 13:57:08;;;;;;;4.43;2.40;;;;;;;;;;5003439;28;87349;-80
2023/06/01 13:59:35;;;;;;;5.75;2.30;;;;;;;;;;4998652;28;88575;-81
2023/06/01 14:02:03;;;;;;;5.82;2.22;;;;;;;;;;5002515;28;88101;-81
2023/06/01 14:04:30;;;;;;;2.95;2.03;;;;;;;;;;5001083;28;88712;-80
2023/06/01 14:06:56;;;;;;;4.85;2.42;;;;;;;;;;5000790;28;87620;-80
2023/06/01 14:09:23;;;;;;;3.88;2.38;;;;;;;;;;5004091;28;88654;-79
2023/06/01 14:11:50;;;;;;;7.40;2.67;;;;;;;;;;5003450;28;87194;-81
2023/06/01 14:14:16;;;;;;;5.13;2.28;;;;;;;;;;5001665;28;88286;-80
2023/06/01 14:16:43;;;;;;;5.97;1.90;;;;;;;;;;5002343;28;87054;-80
2023/06/01 14:19:11;;;;;;;3.78;1.70;;;;;;;;;;5005246;28;88103;-81
2023/06/01 14:21:38;;;;;;;3.80;1.60;;;;;;;;;;4996641;28;88805;-80
2023/06/01 14:24:04;;;;;;;2.78;1.90;;;;;;;;;;5000499;28;89382;-81
2023/06/01 14:26:31;;;;;;;3.55;2.15;;;;;;;;;;4997866;28;88473;-81
2023/06/01 14:30:32;;;;;;;3.60;1.60;;;;;;;;;;5099574;27;86545;-79
2023/06/01 14:32:59;;;;;;;4.10;2.05;;;;;;;;;;5081422;27;88897;-78
2023/06/01 14:35:26;;;;;;;3.58;1.80;;;;;;;;;;5079009;27;89248;-78
2023/06/01 14:37:53;;;;;;;2.85;1.70;;;;;;;;;;5089858;27;88827;-77
2023/06/01 14:40:19;;;;;;;2.90;1.75;;;;;;;;;;5076046;27;88047;-78
2023/06/01 15:25:27;;;;;;;3.92;1.88;;;;;;;;;;5080511;27;88064;-78
2023/06/01 15:27:54;;;;;;;3.50;1.75;;;;;;;;;;5047242;27;87419;-79